Time;durP1;ratioP1;P1;durP2;ratioP2;P2;SDS_P1;SDS_P2;PMS_P1;PMS_P2;Temp;Humidity;BMP_temperature;BMP_pressure;BME280_temperature;BME280_humidity;BME280_pressure;Samples;Min_cycle;Max_cycle;Signal;HPM_P1;HPM_P2
2023/03/15 00:00:10;;;;;;;5.03;1.57;;;3.20;99.90;2.30;98659;;;;573922;248;24011;-78
2023/03/15 00:02:37;;;;;;;12.40;1.47;;;3.30;99.90;2.30;98666;;;;579227;247;24011;-75
2023/03/15 00:05:05;;;;;;;3.83;1.43;;;3.30;99.90;2.30;98670;;;;574429;248;24034;-74
2023/03/15 00:07:34;;;;;;;3.97;1.37;;;3.30;99.90;2.30;98678;;;;579656;248;24017;-74
2023/03/15 00:10:03;;;;;;;4.70;1.23;;;3.20;99.90;2.30;98691;;;;574659;248;24006;-75
2023/03/15 00:12:29;;;;;;;4.67;1.73;;;3.30;99.90;2.30;98680;;;;574561;248;24069;-74
2023/03/15 00:14:57;;;;;;;3.83;1.77;;;3.30;99.90;2.30;98692;;;;570237;248;24008;-75
2023/03/15 00:17:25;;;;;;;3.97;1.67;;;3.30;99.90;2.30;98700;;;;573227;248;25025;-77
2023/03/15 00:19:54;;;;;;;2.40;1.43;;;3.20;99.90;2.30;98703;;;;573104;248;24016;-77
2023/03/15 00:22:22;;;;;;;2.43;0.90;;;3.20;99.90;2.20;98699;;;;574224;248;23994;-78
2023/03/15 00:24:50;;;;;;;7.53;2.47;;;3.20;99.90;2.20;98706;;;;584220;243;25030;-76
2023/03/15 00:27:18;;;;;;;4.33;1.47;;;3.20;99.90;2.20;98715;;;;572996;248;23980;-77
2023/03/15 00:29:46;;;;;;;4.17;2.20;;;3.20;99.90;2.20;98714;;;;573211;248;24086;-75
2023/03/15 00:32:14;;;;;;;2.77;1.87;;;3.20;99.90;2.20;98712;;;;564455;248;24004;-76
2023/03/15 00:34:48;;;;;;;5.43;1.83;;;3.20;99.90;2.20;98706;;;;573195;248;23993;-76
2023/03/15 00:37:11;;;;;;;5.53;1.87;;;3.10;99.90;2.20;98711;;;;573211;247;24028;-75
2023/03/15 00:39:39;;;;;;;2.47;2.07;;;3.10;99.90;2.20;98724;;;;574494;248;23986;-78
2023/03/15 00:42:07;;;;;;;5.67;2.27;;;3.10;99.90;2.20;98722;;;;574077;248;24025;-76
2023/03/15 00:44:35;;;;;;;7.00;2.60;;;3.10;99.90;2.20;98722;;;;573762;248;24036;-77
2023/03/15 00:47:03;;;;;;;7.23;2.40;;;3.10;99.90;2.20;98721;;;;573816;248;23988;-77
2023/03/15 00:49:34;;;;;;;10.07;2.77;;;3.10;99.90;2.20;98722;;;;573578;248;24001;-75
2023/03/15 00:51:59;;;;;;;8.10;2.60;;;3.10;99.90;2.10;98728;;;;564752;248;25381;-75
2023/03/15 00:54:27;;;;;;;4.87;1.93;;;3.10;99.90;2.10;98742;;;;573601;248;24052;-73
2023/03/15 00:56:55;;;;;;;8.88;2.75;;;3.10;99.90;2.10;98750;;;;568261;248;34315;-73
2023/03/15 00:59:23;;;;;;;3.20;1.40;;;3.10;99.90;2.10;98745;;;;573437;248;23988;-73
2023/03/15 01:01:51;;;;;;;4.63;1.70;;;3.10;99.90;2.10;98756;;;;573340;248;23999;-74
2023/03/15 01:04:19;;;;;;;10.33;2.63;;;3.00;99.90;2.10;98761;;;;573377;248;24040;-77
2023/03/15 01:06:48;;;;;;;3.80;2.07;;;3.00;99.90;2.10;98762;;;;573155;248;24047;-78
2023/03/15 01:09:16;;;;;;;9.77;3.17;;;3.00;99.90;2.00;98765;;;;573438;248;23980;-75
2023/03/15 01:11:43;;;;;;;4.00;2.17;;;3.00;99.90;2.00;98761;;;;573375;248;24003;-76
2023/03/15 01:14:11;;;;;;;6.23;2.43;;;2.90;99.90;1.90;98751;;;;573062;248;23991;-78
2023/03/15 01:16:43;;;;;;;8.23;2.67;;;2.90;99.90;1.90;98758;;;;573459;248;24031;-76
2023/03/15 01:19:08;;;;;;;11.33;2.73;;;2.80;99.90;1.90;98762;;;;589267;241;24024;-76
2023/03/15 01:21:36;;;;;;;9.90;3.10;;;2.80;99.90;1.80;98771;;;;584513;243;23951;-78
2023/03/15 01:24:04;;;;;;;7.93;2.57;;;2.80;99.90;1.80;98771;;;;573494;248;23993;-74
2023/03/15 01:26:32;;;;;;;6.93;2.33;;;2.70;99.90;1.70;98770;;;;578525;248;24011;-75
2023/03/15 01:29:00;;;;;;;5.83;2.57;;;2.70;99.90;1.70;98776;;;;573486;248;24009;-74
2023/03/15 01:31:29;;;;;;;7.82;2.33;;;2.70;99.90;1.70;98783;;;;568472;248;34368;-74
2023/03/15 01:33:56;;;;;;;8.37;1.87;;;2.60;99.90;1.70;98782;;;;564467;248;24055;-77
2023/03/15 01:36:24;;;;;;;5.83;1.50;;;2.60;99.90;1.70;98784;;;;589321;243;23988;-77
2023/03/15 01:38:53;;;;;;;2.70;1.87;;;2.60;99.90;1.70;98784;;;;575759;243;24047;-77
2023/03/15 01:41:20;;;;;;;3.73;2.10;;;2.60;99.90;1.70;98784;;;;573076;248;24004;-77
2023/03/15 01:43:48;;;;;;;9.63;2.87;;;2.70;99.90;1.70;98792;;;;577973;248;24035;-77
2023/03/15 01:46:34;;;;;;;10.77;3.53;;;2.60;99.90;1.70;98800;;;;573152;248;23997;-76
2023/03/15 01:49:26;;;;;;;8.00;2.53;;;2.60;99.90;1.70;98809;;;;570492;247;23991;-77
2023/03/15 01:52:05;;;;;;;9.53;3.07;;;2.60;99.90;1.70;98803;;;;570297;248;24025;-77
2023/03/15 01:54:45;;;;;;;9.43;3.20;;;2.60;99.90;1.60;98810;;;;583340;244;24021;-76
2023/03/15 01:57:13;;;;;;;6.77;2.87;;;2.60;99.90;1.60;98819;;;;581528;243;24051;-78
2023/03/15 01:59:53;;;;;;;4.27;2.10;;;2.60;99.90;1.60;98825;;;;588886;243;23990;-75
2023/03/15 02:02:24;;;;;;;7.20;2.27;;;2.60;99.90;1.60;98827;;;;570505;248;24024;-74
2023/03/15 02:04:58;;;;;;;7.40;2.50;;;2.60;99.90;1.60;98828;;;;580864;243;23981;-74
2023/03/15 02:07:29;;;;;;;11.90;2.80;;;2.60;99.90;1.60;98849;;;;565432;248;24044;-76
2023/03/15 02:09:54;;;;;;;6.67;2.83;;;2.60;99.90;1.60;98857;;;;589560;243;23966;-75
2023/03/15 02:12:22;;;;;;;4.53;2.03;;;2.50;99.90;1.50;98854;;;;578161;243;23980;-75
2023/03/15 02:14:53;;;;;;;8.37;2.97;;;2.50;99.90;1.50;98857;;;;582907;243;24077;-75
2023/03/15 02:17:19;;;;;;;6.83;2.40;;;2.40;99.90;1.40;98861;;;;580854;243;24028;-72
2023/03/15 02:20:03;;;;;;;9.03;2.10;;;2.40;99.90;1.40;98873;;;;565093;248;24024;-73
2023/03/15 02:22:30;;;;;;;7.87;2.90;;;2.40;99.90;1.40;98884;;;;584359;243;23980;-72
2023/03/15 02:25:04;;;;;;;6.90;2.33;;;2.30;99.90;1.30;98894;;;;569721;248;24076;-75
2023/03/15 02:27:35;;;;;;;8.03;2.60;;;2.30;99.90;1.30;98892;;;;589581;243;23974;-77
2023/03/15 02:30:02;;;;;;;9.53;2.37;;;2.20;99.90;1.20;98895;;;;580441;243;23984;-77
2023/03/15 02:32:28;;;;;;;5.50;2.30;;;2.20;99.90;1.20;98889;;;;565039;248;25135;-74
2023/03/15 02:34:56;;;;;;;12.27;3.10;;;2.10;99.90;1.10;98900;;;;573444;248;23993;-75
2023/03/15 02:37:24;;;;;;;8.07;2.57;;;2.10;99.90;1.00;98905;;;;564456;248;24045;-74
2023/03/15 02:39:52;;;;;;;9.27;2.50;;;2.00;99.90;1.00;98911;;;;573062;248;23989;-74
2023/03/15 02:42:20;;;;;;;7.67;2.40;;;2.00;99.90;1.00;98915;;;;573174;248;23985;-75
2023/03/15 02:44:49;;;;;;;8.33;2.50;;;1.90;99.90;1.00;98924;;;;574073;248;24104;-76
2023/03/15 02:47:19;;;;;;;7.53;2.53;;;1.90;99.90;0.90;98926;;;;579817;243;24002;-74
2023/03/15 02:49:47;;;;;;;8.60;2.77;;;1.90;99.90;0.90;98924;;;;572971;248;23992;-74
2023/03/15 02:52:15;;;;;;;10.43;2.83;;;1.90;99.90;0.80;98932;;;;564207;248;24054;-73
2023/03/15 02:54:44;;;;;;;10.90;3.03;;;1.80;99.90;0.80;98934;;;;568199;248;34436;-73
2023/03/15 02:57:15;;;;;;;8.47;2.70;;;1.80;99.90;0.80;98941;;;;573031;248;24016;-74
2023/03/15 02:59:41;;;;;;;8.97;3.03;;;1.80;99.90;0.70;98953;;;;564636;248;24010;-74
2023/03/15 03:02:11;;;;;;;12.40;3.35;;;1.70;99.90;0.70;98946;;;;570541;247;34452;-73
2023/03/15 03:04:35;;;;;;;8.67;2.43;;;1.70;99.90;0.70;98956;;;;581348;243;23981;-73
2023/03/15 03:07:04;;;;;;;8.77;2.97;;;1.70;99.90;0.60;98961;;;;573877;248;24014;-73
2023/03/15 03:09:35;;;;;;;12.60;2.60;;;1.70;99.90;0.60;98968;;;;569935;248;23991;-73
2023/03/15 03:12:00;;;;;;;10.80;2.90;;;1.60;99.90;0.60;98973;;;;578396;246;24029;-74
2023/03/15 03:14:28;;;;;;;10.90;3.13;;;1.60;99.90;0.60;98976;;;;573596;248;23997;-73
2023/03/15 03:16:56;;;;;;;6.40;2.40;;;1.60;99.90;0.60;98996;;;;574733;248;23990;-72
2023/03/15 03:19:24;;;;;;;8.07;2.70;;;1.50;99.90;0.50;98990;;;;584886;243;23957;-74
2023/03/15 03:21:55;;;;;;;5.27;2.40;;;1.50;99.90;0.40;99003;;;;573751;248;23994;-73
2023/03/15 03:24:20;;;;;;;6.77;2.23;;;1.50;99.90;0.40;99011;;;;569706;248;24013;-72
2023/03/15 03:26:48;;;;;;;11.67;3.37;;;1.40;99.90;0.40;99010;;;;580962;243;23974;-74
2023/03/15 03:29:16;;;;;;;5.60;2.30;;;1.40;99.90;0.40;99026;;;;584829;243;23963;-75
2023/03/15 03:31:45;;;;;;;13.33;3.07;;;1.40;99.90;0.40;99031;;;;573778;248;24023;-73
2023/03/15 03:34:14;;;;;;;6.73;2.90;;;1.40;99.90;0.40;99032;;;;573760;248;23987;-74
2023/03/15 03:36:43;;;;;;;8.97;2.77;;;1.40;99.90;0.40;99025;;;;573573;248;24036;-75
2023/03/15 03:39:09;;;;;;;10.23;2.50;;;1.30;99.90;0.30;99033;;;;577741;248;24031;-73
2023/03/15 03:41:37;;;;;;;8.03;2.60;;;1.30;99.90;0.30;99048;;;;578197;248;23981;-73
2023/03/15 03:44:05;;;;;;;11.57;3.33;;;1.30;99.90;0.20;99042;;;;573092;248;23992;-76
2023/03/15 03:46:33;;;;;;;12.77;2.73;;;1.30;99.90;0.20;99051;;;;573242;248;23985;-78
2023/03/15 03:49:04;;;;;;;7.27;2.30;;;1.20;99.90;0.20;99049;;;;573008;248;23988;-77
2023/03/15 03:51:29;;;;;;;9.30;2.70;;;1.20;99.90;0.10;99062;;;;572733;248;24004;-77
2023/03/15 03:53:57;;;;;;;14.07;3.10;;;1.20;99.90;0.10;99072;;;;573063;248;24009;-77
2023/03/15 03:56:24;;;;;;;8.73;2.70;;;1.20;99.90;0.10;99081;;;;573047;248;23985;-77
2023/03/15 03:58:53;;;;;;;11.17;2.70;;;1.10;99.90;0.10;99086;;;;573128;248;23996;-78
2023/03/15 04:01:21;;;;;;;8.57;2.73;;;1.10;99.90;0.10;99096;;;;573083;248;23984;-76
2023/03/15 04:03:50;;;;;;;4.67;2.20;;;1.10;99.90;0.10;99100;;;;573225;248;24066;-78
2023/03/15 04:06:17;;;;;;;7.70;2.60;;;1.20;99.90;0.20;99109;;;;572976;248;24104;-77
2023/03/15 04:08:45;;;;;;;9.67;2.30;;;1.20;99.90;0.30;99110;;;;573033;248;23999;-78
2023/03/15 04:11:16;;;;;;;10.97;2.30;;;1.30;99.90;0.30;99119;;;;573164;248;23997;-76
2023/03/15 04:13:41;;;;;;;7.67;2.53;;;1.30;99.90;0.20;99112;;;;574399;247;23992;-74
2023/03/15 04:16:09;;;;;;;3.67;1.87;;;1.30;99.90;0.20;99127;;;;574192;248;24023;-73
2023/03/15 04:18:39;;;;;;;7.00;2.10;;;1.20;99.90;0.10;99133;;;;573861;248;24013;-73
2023/03/15 04:21:09;;;;;;;5.77;2.30;;;1.20;99.90;0.10;99141;;;;574073;248;23994;-77
2023/03/15 04:23:33;;;;;;;6.20;1.90;;;1.10;99.90;0.00;99145;;;;573703;248;24000;-78
2023/03/15 04:26:01;;;;;;;8.03;2.20;;;1.00;99.90;0.00;99155;;;;574017;248;24125;-74
2023/03/15 04:28:29;;;;;;;6.90;2.53;;;1.00;99.90;0.00;99160;;;;573972;248;24090;-76
2023/03/15 04:30:57;;;;;;;8.97;2.50;;;1.00;99.90;-0.10;99170;;;;573789;248;24018;-72
2023/03/15 04:33:24;;;;;;;5.93;2.27;;;1.00;99.90;-0.10;99185;;;;573573;248;23998;-74
2023/03/15 04:35:52;;;;;;;9.83;2.37;;;0.90;99.90;0.00;99179;;;;565360;248;24040;-75
2023/03/15 04:38:25;;;;;;;8.67;3.00;;;1.00;99.90;0.10;99185;;;;573728;248;24055;-74
2023/03/15 04:40:48;;;;;;;6.57;3.13;;;1.00;99.90;0.20;99182;;;;573114;248;24004;-76
2023/03/15 04:43:16;;;;;;;5.40;2.83;;;1.20;99.90;0.30;99187;;;;573308;248;24013;-76
2023/03/15 04:45:44;;;;;;;7.87;3.13;;;1.30;99.90;0.40;99195;;;;573416;248;24009;-75
2023/03/15 04:48:12;;;;;;;7.70;3.37;;;1.40;99.90;0.50;99186;;;;573277;248;23992;-77
2023/03/15 04:50:40;;;;;;;11.93;3.40;;;1.50;99.90;0.60;99187;;;;573055;248;23992;-73
2023/03/15 04:53:08;;;;;;;12.00;2.87;;;1.60;99.90;0.60;99188;;;;573121;248;23980;-78
2023/03/15 04:55:36;;;;;;;11.20;2.80;;;1.60;99.90;0.60;99193;;;;573040;248;24038;-77
2023/03/15 04:58:04;;;;;;;7.80;3.23;;;1.60;99.90;0.50;99187;;;;573191;248;24026;-78
2023/03/15 05:00:32;;;;;;;7.27;2.70;;;1.50;99.90;0.40;99194;;;;573093;248;24007;-78
2023/03/15 05:03:00;;;;;;;8.23;2.40;;;1.50;99.90;0.40;99201;;;;573236;248;23985;-77
2023/03/15 05:05:28;;;;;;;6.30;2.30;;;1.50;99.90;0.30;99199;;;;573113;248;23988;-77
2023/03/15 05:07:56;;;;;;;8.53;2.60;;;1.40;99.90;0.30;99200;;;;573060;248;24004;-78
2023/03/15 05:10:24;;;;;;;7.83;2.60;;;1.30;99.90;0.20;99205;;;;573176;248;23999;-77
2023/03/15 05:12:52;;;;;;;8.27;2.70;;;1.20;99.90;0.10;99198;;;;573069;248;24037;-75
2023/03/15 05:15:20;;;;;;;12.50;3.00;;;1.10;99.90;0.10;99210;;;;573233;248;24031;-74
2023/03/15 05:17:48;;;;;;;10.87;2.50;;;1.10;99.90;0.00;99211;;;;573100;248;24009;-75
2023/03/15 05:20:17;;;;;;;11.90;2.93;;;1.10;99.90;0.10;99216;;;;573074;248;24017;-76
2023/03/15 05:22:45;;;;;;;9.20;2.83;;;1.00;99.90;0.10;99216;;;;573357;248;24019;-76
2023/03/15 05:25:14;;;;;;;6.93;2.37;;;1.10;99.90;0.10;99232;;;;574972;247;24011;-77
2023/03/15 05:27:41;;;;;;;8.83;2.90;;;1.20;99.90;0.20;99240;;;;574425;248;23991;-77
2023/03/15 05:30:13;;;;;;;8.33;2.70;;;1.20;99.90;0.30;99250;;;;574220;248;24001;-77
2023/03/15 05:32:38;;;;;;;10.90;3.20;;;1.30;99.90;0.50;99258;;;;573480;248;23990;-78
2023/03/15 05:35:05;;;;;;;8.30;2.97;;;1.40;99.90;0.60;99259;;;;573981;248;24019;-76
2023/03/15 05:37:35;;;;;;;8.40;3.60;;;1.60;99.90;0.70;99257;;;;570258;248;24045;-76
2023/03/15 05:40:00;;;;;;;5.37;3.40;;;1.70;99.90;0.70;99271;;;;570097;248;24008;-78
2023/03/15 05:42:29;;;;;;;7.97;4.07;;;1.70;99.90;0.90;99265;;;;564837;248;23998;-77
2023/03/15 05:44:56;;;;;;;10.80;2.87;;;1.90;99.90;1.10;99272;;;;573320;248;23991;-78
2023/03/15 05:47:24;;;;;;;7.43;3.07;;;2.00;99.90;1.20;99275;;;;573394;248;23988;-78
2023/03/15 05:49:53;;;;;;;3.73;2.27;;;2.30;99.90;1.40;99281;;;;573311;248;24021;-78
2023/03/15 05:52:21;;;;;;;3.80;2.47;;;2.30;99.90;1.50;99284;;;;573379;248;23996;-76
2023/03/15 05:54:49;;;;;;;6.23;2.23;;;2.50;99.90;1.60;99288;;;;573359;248;24011;-73
2023/03/15 05:57:17;;;;;;;7.73;2.60;;;2.50;99.90;1.80;99292;;;;573429;248;24021;-75
2023/03/15 05:59:45;;;;;;;4.07;2.50;;;2.70;99.90;1.90;99306;;;;569607;248;24031;-74
2023/03/15 06:02:13;;;;;;;3.27;2.20;;;2.80;99.90;2.20;99309;;;;573236;248;24065;-75
2023/03/15 06:04:41;;;;;;;4.67;2.00;;;3.10;99.90;2.40;99319;;;;573137;248;24002;-75
2023/03/15 06:07:10;;;;;;;5.47;2.20;;;3.50;99.90;2.60;99324;;;;573076;248;24009;-77
2023/03/15 06:09:38;;;;;;;3.77;2.10;;;3.40;99.90;2.70;99332;;;;573143;248;23996;-74
2023/03/15 06:12:05;;;;;;;2.17;1.50;;;3.60;99.90;2.70;99338;;;;573098;248;24039;-75
2023/03/15 06:14:33;;;;;;;4.53;2.23;;;3.70;99.90;2.70;99343;;;;565002;248;24027;-77
2023/03/15 06:17:01;;;;;;;1.43;1.23;;;3.70;99.90;2.70;99341;;;;573130;248;24009;-76
2023/03/15 06:19:29;;;;;;;3.53;2.00;;;3.70;99.90;2.60;99342;;;;573043;248;24076;-77
2023/03/15 06:21:57;;;;;;;2.53;1.53;;;3.70;99.90;2.50;99341;;;;573185;248;24017;-75
2023/03/15 06:24:25;;;;;;;7.20;2.10;;;3.60;99.90;3.30;99346;;;;573459;248;25021;-77
2023/03/15 06:26:56;;;;;;;3.72;2.12;;;3.90;99.90;5.60;99353;;;;575638;243;34203;-73
2023/03/15 06:29:21;;;;;;;4.30;2.23;;;5.60;99.90;7.70;99365;;;;589374;243;23982;-74
2023/03/15 06:31:49;;;;;;;2.67;1.80;;;7.70;99.90;9.80;99371;;;;584514;243;23958;-75
2023/03/15 06:34:17;;;;;;;4.10;1.53;;;9.80;99.90;11.70;99381;;;;573305;248;24009;-77
2023/03/15 06:36:44;;;;;;;2.07;1.50;;;11.70;99.90;13.00;99383;;;;574937;247;24017;-78
2023/03/15 06:39:12;;;;;;;2.50;1.40;;;13.20;99.90;13.50;99382;;;;579500;247;23998;-74
2023/03/15 06:41:41;;;;;;;2.57;1.60;;;14.60;99.90;14.10;99390;;;;574297;248;23974;-77
2023/03/15 06:44:10;;;;;;;2.10;1.50;;;15.60;99.90;15.20;99408;;;;565279;248;24034;-76
2023/03/15 06:46:38;;;;;;;3.67;1.80;;;15.50;99.90;16.10;99409;;;;573626;248;24061;-76
2023/03/15 06:49:06;;;;;;;1.60;1.50;;;16.40;99.90;16.80;99409;;;;570190;248;23998;-74
2023/03/15 06:51:33;;;;;;;2.77;1.33;;;17.10;94.10;17.40;99426;;;;573665;248;24035;-75
2023/03/15 06:54:02;;;;;;;3.13;1.80;;;18.40;87.00;18.10;99427;;;;569708;248;24006;-76
2023/03/15 06:56:35;;;;;;;2.43;1.77;;;19.30;81.50;18.90;99425;;;;569794;248;23977;-75
2023/03/15 06:58:59;;;;;;;6.30;2.27;;;19.20;81.40;19.50;99436;;;;569185;248;23023;-74
2023/03/15 07:01:27;;;;;;;2.73;1.60;;;19.80;76.90;19.90;99445;;;;569670;248;23998;-77
2023/03/15 07:03:55;;;;;;;2.37;1.73;;;20.40;69.60;19.50;99452;;;;569708;248;24025;-77
2023/03/15 07:06:26;;;;;;;3.60;1.53;;;19.40;70.10;18.40;99452;;;;569692;248;23015;-77
2023/03/15 07:08:51;;;;;;;5.27;1.50;;;19.40;70.10;17.30;99460;;;;569785;248;24000;-76
2023/03/15 07:11:19;;;;;;;1.97;1.77;;;18.50;73.20;17.60;99474;;;;569973;248;23995;-77
2023/03/15 07:13:47;;;;;;;4.63;1.70;;;18.30;75.30;17.50;99474;;;;578696;248;24002;-78
2023/03/15 07:16:16;;;;;;;2.67;2.00;;;18.20;74.80;17.70;99487;;;;569990;248;24005;-76
2023/03/15 07:18:44;;;;;;;4.00;1.73;;;17.90;72.60;16.90;99490;;;;569868;248;24052;-78
2023/03/15 07:21:12;;;;;;;2.10;1.70;;;17.80;72.50;15.80;99480;;;;569889;248;23977;-77
2023/03/15 07:23:40;;;;;;;2.73;1.63;;;17.00;74.30;15.80;99486;;;;569920;248;24003;-78
2023/03/15 07:26:08;;;;;;;3.63;1.60;;;16.50;78.40;15.90;99490;;;;569579;248;23989;-78
2023/03/15 07:28:39;;;;;;;2.20;1.93;;;16.70;79.40;14.80;99493;;;;569494;248;24074;-77
2023/03/15 07:31:10;;;;;;;4.97;1.93;;;15.90;76.60;14.30;99487;;;;569535;248;23983;-75
2023/03/15 07:33:37;;;;;;;2.90;1.97;;;15.20;78.60;14.70;99485;;;;572998;248;24010;-74
2023/03/15 07:36:09;;;;;;;8.83;1.93;;;15.20;83.30;16.20;99494;;;;569770;248;24038;-76
2023/03/15 07:38:36;;;;;;;3.00;1.87;;;16.30;78.30;16.30;99497;;;;580851;243;23969;-74
2023/03/15 07:41:07;;;;;;;2.83;1.93;;;16.80;74.70;15.90;99493;;;;580103;243;23965;-74
2023/03/15 07:43:35;;;;;;;5.37;2.00;;;16.70;74.10;16.20;99501;;;;583760;243;24004;-73
2023/03/15 07:46:00;;;;;;;2.00;1.40;;;16.70;74.00;16.00;99508;;;;589431;241;23993;-73
2023/03/15 07:48:28;;;;;;;1.87;1.70;;;16.70;73.90;16.90;99512;;;;575605;247;24052;-75
2023/03/15 07:50:57;;;;;;;2.63;1.40;;;18.00;71.90;17.60;99507;;;;585603;243;23986;-74
2023/03/15 07:53:25;;;;;;;4.70;1.67;;;18.00;72.00;18.90;99520;;;;570632;248;23036;-74
2023/03/15 07:55:57;;;;;;;2.67;1.87;;;19.10;69.10;19.80;99525;;;;574194;248;24023;-78
2023/03/15 07:58:21;;;;;;;3.40;1.73;;;20.00;65.10;20.90;99535;;;;569648;248;24061;-79
2023/03/15 08:00:49;;;;;;;2.20;1.73;;;21.10;61.00;21.00;99539;;;;570442;248;24004;-74
2023/03/15 08:03:17;;;;;;;2.00;1.80;;;21.50;59.30;21.60;99547;;;;570388;248;24013;-75
2023/03/15 08:05:45;;;;;;;4.87;1.97;;;22.40;57.00;21.50;99553;;;;570184;248;24011;-78
2023/03/15 08:08:13;;;;;;;3.70;1.87;;;22.30;56.40;20.70;99570;;;;570131;248;23979;-79
2023/03/15 08:10:42;;;;;;;2.77;1.73;;;21.70;54.90;19.60;99574;;;;573743;248;24022;-78
2023/03/15 08:13:09;;;;;;;4.73;2.30;;;20.80;56.70;18.30;99570;;;;573621;248;24052;-76
2023/03/15 08:15:38;;;;;;;3.87;1.53;;;18.30;61.30;16.70;99565;;;;570001;248;24042;-76
2023/03/15 08:18:06;;;;;;;1.70;1.60;;;18.30;61.30;16.60;99575;;;;569659;248;24012;-80
2023/03/15 08:20:33;;;;;;;2.37;1.90;;;17.50;64.30;17.80;99579;;;;570127;248;24022;-78
2023/03/15 08:23:01;;;;;;;2.60;1.67;;;18.20;65.30;19.40;99588;;;;569979;248;23970;-73
2023/03/15 08:25:29;;;;;;;4.00;1.63;;;19.50;61.20;20.30;99581;;;;569408;248;23989;-74
2023/03/15 08:27:57;;;;;;;4.00;2.10;;;20.50;58.80;20.90;99595;;;;569387;248;23010;-74
2023/03/15 08:30:25;;;;;;;2.37;1.57;;;21.30;58.40;21.80;99600;;;;573133;248;24012;-74
2023/03/15 08:32:53;;;;;;;3.53;1.93;;;22.10;55.90;22.10;99608;;;;569452;248;23977;-74
2023/03/15 08:35:21;;;;;;;4.23;2.40;;;22.70;53.90;21.80;99621;;;;569592;248;23969;-75
2023/03/15 08:37:52;;;;;;;3.33;1.73;;;22.60;53.30;20.50;99617;;;;573181;248;24005;-75
2023/03/15 08:40:22;;;;;;;3.83;1.93;;;21.70;53.00;19.50;99628;;;;569057;248;24075;-73
2023/03/15 08:42:45;;;;;;;5.30;2.00;;;20.70;54.90;18.10;99625;;;;568904;248;23993;-75
2023/03/15 08:45:14;;;;;;;2.70;1.50;;;18.10;58.20;16.30;99633;;;;569472;248;23984;-75
2023/03/15 08:47:42;;;;;;;5.73;1.90;;;18.10;58.20;15.00;99641;;;;569836;248;24019;-74
2023/03/15 08:50:13;;;;;;;3.93;2.17;;;15.10;63.80;13.40;99637;;;;569832;248;23991;-74
2023/03/15 08:52:45;;;;;;;7.27;2.13;;;15.10;63.10;12.60;99632;;;;572735;248;24019;-74
2023/03/15 08:55:12;;;;;;;4.10;2.27;;;14.00;68.00;13.70;99635;;;;572896;248;23997;-75
2023/03/15 08:57:37;;;;;;;5.73;2.00;;;14.20;70.10;15.20;99642;;;;569200;248;24053;-74
2023/03/15 09:00:16;;;;;;;4.10;2.03;;;15.40;68.80;17.00;99645;;;;571289;247;23992;-74
2023/03/15 09:02:35;;;;;;;4.50;1.87;;;17.10;65.50;17.30;99654;;;;578970;248;23996;-74
2023/03/15 09:05:05;;;;;;;2.83;1.40;;;17.90;61.20;17.90;99666;;;;570610;248;24000;-74
2023/03/15 09:07:31;;;;;;;2.83;1.57;;;18.50;58.10;18.90;99671;;;;570811;248;24015;-74
2023/03/15 09:10:02;;;;;;;3.70;1.40;;;19.50;56.80;19.50;99672;;;;570335;248;23996;-74
2023/03/15 09:12:28;;;;;;;3.20;1.80;;;20.60;54.80;19.80;99688;;;;579129;248;23056;-74
2023/03/15 09:14:55;;;;;;;4.60;1.63;;;20.60;54.20;20.60;99689;;;;585065;243;22982;-74
2023/03/15 09:17:26;;;;;;;2.80;1.40;;;21.40;52.70;21.40;99701;;;;573829;248;24074;-74
2023/03/15 09:19:54;;;;;;;2.77;1.70;;;22.10;50.10;21.10;99712;;;;570065;248;23991;-74
2023/03/15 09:22:23;;;;;;;2.60;1.30;;;20.90;50.30;19.00;99714;;;;570077;248;23993;-77
2023/03/15 09:24:51;;;;;;;2.90;1.30;;;20.90;50.30;18.80;99717;;;;570063;248;23015;-77
2023/03/15 09:27:18;;;;;;;2.43;1.37;;;20.20;52.60;18.90;99710;;;;570709;248;23997;-74
2023/03/15 09:29:46;;;;;;;3.13;1.53;;;20.20;52.20;19.20;99721;;;;570793;248;24000;-74
2023/03/15 09:32:15;;;;;;;3.47;1.50;;;20.30;52.80;19.50;99721;;;;570018;248;23988;-77
2023/03/15 09:34:44;;;;;;;1.53;1.43;;;21.10;52.10;20.50;99727;;;;573623;248;23982;-75
2023/03/15 09:37:12;;;;;;;1.77;1.27;;;21.10;52.10;21.00;99726;;;;569650;248;23983;-76
2023/03/15 09:39:40;;;;;;;2.93;1.70;;;21.70;50.30;20.50;99727;;;;569747;248;24008;-77
2023/03/15 09:42:10;;;;;;;2.03;1.30;;;21.70;49.20;19.80;99718;;;;569600;248;24023;-75
2023/03/15 09:44:44;;;;;;;3.60;1.20;;;21.10;50.80;19.20;99730;;;;569113;248;25121;-75
2023/03/15 09:47:36;;;;;;;3.53;1.77;;;20.50;51.70;18.50;99726;;;;569422;248;24015;-76
2023/03/15 09:50:23;;;;;;;2.80;1.63;;;19.90;51.80;17.70;99726;;;;563654;248;24011;-79
2023/03/15 09:52:56;;;;;;;1.43;1.03;;;19.20;52.30;17.70;99739;;;;569178;248;23032;-77
2023/03/15 09:55:29;;;;;;;4.30;1.70;;;19.10;52.20;17.40;99741;;;;587937;243;23989;-76
2023/03/15 09:58:06;;;;;;;2.80;1.62;;;18.80;52.30;16.80;99737;;;;575738;243;34196;-78
2023/03/15 10:00:43;;;;;;;4.97;1.50;;;18.40;53.10;16.20;99746;;;;569198;248;24000;-78
2023/03/15 10:03:20;;;;;;;2.97;1.43;;;17.70;54.40;16.20;99757;;;;577631;248;24002;-77
2023/03/15 10:05:50;;;;;;;2.70;1.50;;;17.40;55.90;16.80;99760;;;;572754;248;24009;-77
2023/03/15 10:08:18;;;;;;;2.77;1.40;;;17.70;56.20;17.80;99759;;;;569497;248;24021;-79
2023/03/15 10:11:04;;;;;;;5.20;1.47;;;18.80;54.50;17.50;99765;;;;570984;247;24014;-78
2023/03/15 10:13:41;;;;;;;1.83;1.53;;;18.80;54.50;17.50;99770;;;;570766;248;23993;-77
2023/03/15 10:16:33;;;;;;;4.17;1.83;;;18.80;54.70;17.20;99778;;;;573450;248;24022;-78
2023/03/15 10:19:36;;;;;;;4.67;1.77;;;17.60;54.60;15.80;99780;;;;582973;245;23041;-75
2023/03/15 10:22:10;;;;;;;3.33;1.73;;;17.50;54.60;14.50;99776;;;;581017;243;24039;-79
2023/03/15 10:24:43;;;;;;;3.50;1.30;;;16.20;57.10;14.60;99769;;;;578292;243;24001;-77
2023/03/15 10:27:39;;;;;;;3.07;1.63;;;15.70;59.60;15.30;99787;;;;578459;248;23985;-78
2023/03/15 10:30:15;;;;;;;4.83;1.80;;;16.10;58.80;15.60;99792;;;;580719;243;23976;-77
2023/03/15 10:32:46;;;;;;;2.53;1.20;;;16.50;57.30;15.50;99787;;;;589991;243;23972;-77
2023/03/15 10:35:14;;;;;;;5.63;1.70;;;16.50;57.20;15.90;99793;;;;589731;243;23969;-75
2023/03/15 10:37:45;;;;;;;2.63;1.17;;;16.70;57.00;15.50;99797;;;;581494;243;24137;-76
2023/03/15 10:40:15;;;;;;;1.77;1.23;;;16.00;56.70;14.70;99798;;;;589825;243;23967;-76
2023/03/15 10:42:39;;;;;;;7.00;2.10;;;16.00;56.00;14.10;99805;;;;576160;243;35059;-76
2023/03/15 10:45:19;;;;;;;4.53;1.47;;;14.90;59.30;13.70;99800;;;;581346;243;24122;-74
2023/03/15 10:47:48;;;;;;;3.03;1.63;;;14.20;60.00;13.00;99811;;;;579053;247;23985;-77
2023/03/15 10:50:17;;;;;;;3.50;1.17;;;13.50;60.70;12.40;99812;;;;580496;243;23962;-78
2023/03/15 10:52:45;;;;;;;2.93;1.37;;;13.50;60.60;11.70;99813;;;;569057;248;24064;-75
2023/03/15 10:55:15;;;;;;;2.47;1.07;;;12.80;60.60;11.00;99810;;;;577120;247;24007;-76
2023/03/15 10:57:53;;;;;;;2.20;1.10;;;12.10;60.60;10.20;99807;;;;569225;248;23996;-73
2023/03/15 11:00:32;;;;;;;4.00;1.20;;;11.30;62.30;9.60;99801;;;;569207;248;24004;-76
2023/03/15 11:03:15;;;;;;;2.33;1.57;;;10.60;64.80;9.20;99810;;;;569214;248;24024;-73
2023/03/15 11:05:42;;;;;;;16.33;6.40;;;10.10;67.80;9.00;99808;;;;576847;247;24001;-78
2023/03/15 11:08:14;;;;;;;8.73;4.73;;;9.80;69.30;8.90;99817;;;;569552;248;24039;-78
2023/03/15 11:10:43;;;;;;;3.13;1.40;;;9.60;71.10;8.70;99810;;;;564169;248;24000;-77
2023/03/15 11:13:30;;;;;;;7.57;2.25;;;9.50;71.70;8.50;99822;;;;559666;248;34312;-79
2023/03/15 11:16:08;;;;;;;7.43;1.70;;;9.20;72.70;8.30;99824;;;;568907;248;24026;-78
2023/03/15 11:18:54;;;;;;;8.10;1.23;;;9.10;73.20;8.20;99807;;;;569084;248;24050;-78
2023/03/15 11:21:22;;;;;;;3.53;1.00;;;9.00;73.00;7.90;99819;;;;580040;242;24016;-79
2023/03/15 11:23:49;;;;;;;2.67;1.33;;;8.80;72.60;7.80;99813;;;;581243;243;23977;-79
2023/03/15 11:26:21;;;;;;;5.40;2.13;;;8.50;73.40;7.80;99817;;;;575801;244;24128;-78
2023/03/15 11:28:51;;;;;;;3.63;0.80;;;8.50;73.40;7.70;99825;;;;589991;243;24093;-76
2023/03/15 11:31:23;;;;;;;3.60;1.30;;;8.50;73.40;7.60;99836;;;;564875;248;34326;-78
2023/03/15 11:34:03;;;;;;;4.03;1.30;;;8.40;72.90;7.30;99826;;;;573847;248;24013;-77
2023/03/15 11:36:34;;;;;;;2.97;1.40;;;8.20;71.10;6.90;99824;;;;583064;245;23998;-77